sensor_id;sensor_type;location;lat;lon;timestamp;temperature;humidity
10314;DHT22;5202;49.138;10.090;2022-11-09T00:01:44;8.20;99.90
10314;DHT22;5202;49.138;10.090;2022-11-09T00:04:12;8.10;99.90
10314;DHT22;5202;49.138;10.090;2022-11-09T00:06:40;8.10;99.90
10314;DHT22;5202;49.138;10.090;2022-11-09T00:09:10;8.00;99.90
10314;DHT22;5202;49.138;10.090;2022-11-09T00:11:38;8.00;99.90
10314;DHT22;5202;49.138;10.090;2022-11-09T00:14:11;8.00;99.90
10314;DHT22;5202;49.138;10.090;2022-11-09T00:16:42;8.00;99.90
10314;DHT22;5202;49.138;10.090;2022-11-09T00:19:11;7.90;99.90
10314;DHT22;5202;49.138;10.090;2022-11-09T00:21:39;7.90;99.90
10314;DHT22;5202;49.138;10.090;2022-11-09T00:24:10;7.90;99.90
10314;DHT22;5202;49.138;10.090;2022-11-09T00:26:38;7.90;99.90
10314;DHT22;5202;49.138;10.090;2022-11-09T00:29:06;7.90;99.90
10314;DHT22;5202;49.138;10.090;2022-11-09T00:31:35;8.00;99.90
10314;DHT22;5202;49.138;10.090;2022-11-09T00:34:03;8.00;99.90
10314;DHT22;5202;49.138;10.090;2022-11-09T00:36:33;8.00;99.90
10314;DHT22;5202;49.138;10.090;2022-11-09T00:39:04;8.00;99.90
10314;DHT22;5202;49.138;10.090;2022-11-09T00:41:38;8.00;99.90
10314;DHT22;5202;49.138;10.090;2022-11-09T00:44:07;8.00;99.90
10314;DHT22;5202;49.138;10.090;2022-11-09T00:46:35;8.10;99.90
10314;DHT22;5202;49.138;10.090;2022-11-09T00:49:04;8.10;99.90
10314;DHT22;5202;49.138;10.090;2022-11-09T00:51:32;8.10;99.90
10314;DHT22;5202;49.138;10.090;2022-11-09T00:54:01;8.10;99.90
10314;DHT22;5202;49.138;10.090;2022-11-09T00:56:29;8.20;99.90
10314;DHT22;5202;49.138;10.090;2022-11-09T00:58:59;8.20;99.90
10314;DHT22;5202;49.138;10.090;2022-11-09T01:01:27;8.30;99.90
10314;DHT22;5202;49.138;10.090;2022-11-09T01:03:56;8.30;99.90
10314;DHT22;5202;49.138;10.090;2022-11-09T01:06:27;8.30;99.90
10314;DHT22;5202;49.138;10.090;2022-11-09T01:08:57;8.40;99.90
10314;DHT22;5202;49.138;10.090;2022-11-09T01:11:25;8.40;99.90
10314;DHT22;5202;49.138;10.090;2022-11-09T01:13:54;8.40;99.90
10314;DHT22;5202;49.138;10.090;2022-11-09T01:16:23;8.30;99.90
10314;DHT22;5202;49.138;10.090;2022-11-09T01:18:53;8.30;99.90
10314;DHT22;5202;49.138;10.090;2022-11-09T01:21:24;8.30;99.90
10314;DHT22;5202;49.138;10.090;2022-11-09T01:23:54;8.30;99.90
10314;DHT22;5202;49.138;10.090;2022-11-09T01:26:27;8.30;99.90
10314;DHT22;5202;49.138;10.090;2022-11-09T01:28:55;8.30;99.90
10314;DHT22;5202;49.138;10.090;2022-11-09T01:31:25;8.30;99.90
10314;DHT22;5202;49.138;10.090;2022-11-09T01:33:54;8.30;99.90
10314;DHT22;5202;49.138;10.090;2022-11-09T01:36:23;8.30;99.90
10314;DHT22;5202;49.138;10.090;2022-11-09T01:38:52;8.30;99.90
10314;DHT22;5202;49.138;10.090;2022-11-09T01:41:23;8.30;99.90
10314;DHT22;5202;49.138;10.090;2022-11-09T01:44:03;8.20;99.90
10314;DHT22;5202;49.138;10.090;2022-11-09T01:46:43;8.20;99.90
10314;DHT22;5202;49.138;10.090;2022-11-09T01:49:20;8.20;99.90
10314;DHT22;5202;49.138;10.090;2022-11-09T01:51:54;8.20;99.90
10314;DHT22;5202;49.138;10.090;2022-11-09T01:54:28;8.20;99.90
10314;DHT22;5202;49.138;10.090;2022-11-09T01:57:00;8.20;99.90
10314;DHT22;5202;49.138;10.090;2022-11-09T01:59:34;8.20;99.90
10314;DHT22;5202;49.138;10.090;2022-11-09T02:02:05;8.20;99.90
10314;DHT22;5202;49.138;10.090;2022-11-09T02:04:40;8.30;99.90
10314;DHT22;5202;49.138;10.090;2022-11-09T02:07:12;8.30;99.90
10314;DHT22;5202;49.138;10.090;2022-11-09T02:09:46;8.30;99.90
10314;DHT22;5202;49.138;10.090;2022-11-09T02:12:18;8.30;99.90
10314;DHT22;5202;49.138;10.090;2022-11-09T02:14:49;8.40;99.90
10314;DHT22;5202;49.138;10.090;2022-11-09T02:17:20;8.40;99.90
10314;DHT22;5202;49.138;10.090;2022-11-09T02:19:49;8.40;99.90
10314;DHT22;5202;49.138;10.090;2022-11-09T02:22:20;8.40;99.90
10314;DHT22;5202;49.138;10.090;2022-11-09T02:24:48;8.50;99.90
10314;DHT22;5202;49.138;10.090;2022-11-09T02:27:22;8.50;99.90
10314;DHT22;5202;49.138;10.090;2022-11-09T02:29:52;8.40;99.90
10314;DHT22;5202;49.138;10.090;2022-11-09T02:32:23;8.50;99.90
10314;DHT22;5202;49.138;10.090;2022-11-09T02:34:55;8.50;99.90
10314;DHT22;5202;49.138;10.090;2022-11-09T02:37:28;8.50;99.90
10314;DHT22;5202;49.138;10.090;2022-11-09T02:39:58;8.50;99.90
10314;DHT22;5202;49.138;10.090;2022-11-09T02:42:27;8.60;99.90
10314;DHT22;5202;49.138;10.090;2022-11-09T02:44:58;8.60;99.90
10314;DHT22;5202;49.138;10.090;2022-11-09T02:47:27;8.60;99.90
10314;DHT22;5202;49.138;10.090;2022-11-09T02:50:00;8.60;99.90
10314;DHT22;5202;49.138;10.090;2022-11-09T02:52:29;8.60;99.90
10314;DHT22;5202;49.138;10.090;2022-11-09T02:54:58;8.60;99.90
10314;DHT22;5202;49.138;10.090;2022-11-09T02:57:26;8.60;99.90
10314;DHT22;5202;49.138;10.090;2022-11-09T02:59:55;8.60;99.90
10314;DHT22;5202;49.138;10.090;2022-11-09T03:02:23;8.60;99.90
10314;DHT22;5202;49.138;10.090;2022-11-09T03:04:51;8.60;99.90
10314;DHT22;5202;49.138;10.090;2022-11-09T03:07:23;8.60;99.90
10314;DHT22;5202;49.138;10.090;2022-11-09T03:09:53;8.60;99.90
10314;DHT22;5202;49.138;10.090;2022-11-09T03:12:24;8.60;99.90
10314;DHT22;5202;49.138;10.090;2022-11-09T03:15:07;8.60;99.90
10314;DHT22;5202;49.138;10.090;2022-11-09T03:17:41;8.70;99.90
10314;DHT22;5202;49.138;10.090;2022-11-09T03:20:10;8.70;99.90
10314;DHT22;5202;49.138;10.090;2022-11-09T03:22:40;8.70;99.90
10314;DHT22;5202;49.138;10.090;2022-11-09T03:25:10;8.80;99.90
10314;DHT22;5202;49.138;10.090;2022-11-09T03:27:38;8.80;99.90
10314;DHT22;5202;49.138;10.090;2022-11-09T03:30:08;8.70;99.90
10314;DHT22;5202;49.138;10.090;2022-11-09T03:32:37;8.80;99.90
10314;DHT22;5202;49.138;10.090;2022-11-09T03:35:07;8.80;99.90
10314;DHT22;5202;49.138;10.090;2022-11-09T03:37:36;8.80;99.90
10314;DHT22;5202;49.138;10.090;2022-11-09T03:40:05;8.90;99.90
10314;DHT22;5202;49.138;10.090;2022-11-09T03:42:36;9.00;99.90
10314;DHT22;5202;49.138;10.090;2022-11-09T03:45:05;9.00;99.90
10314;DHT22;5202;49.138;10.090;2022-11-09T03:47:33;9.00;99.90
10314;DHT22;5202;49.138;10.090;2022-11-09T03:50:02;9.10;99.90
10314;DHT22;5202;49.138;10.090;2022-11-09T03:52:30;9.10;99.90
10314;DHT22;5202;49.138;10.090;2022-11-09T03:54:58;9.10;99.90
10314;DHT22;5202;49.138;10.090;2022-11-09T03:57:35;9.10;99.90
10314;DHT22;5202;49.138;10.090;2022-11-09T04:00:05;9.10;99.90
10314;DHT22;5202;49.138;10.090;2022-11-09T04:02:37;9.10;99.90
10314;DHT22;5202;49.138;10.090;2022-11-09T04:05:07;9.10;99.90
10314;DHT22;5202;49.138;10.090;2022-11-09T04:07:36;9.10;99.90
10314;DHT22;5202;49.138;10.090;2022-11-09T04:10:05;9.10;99.90
10314;DHT22;5202;49.138;10.090;2022-11-09T04:12:36;9.00;99.90
10314;DHT22;5202;49.138;10.090;2022-11-09T04:15:05;9.00;99.90
10314;DHT22;5202;49.138;10.090;2022-11-09T04:17:35;9.00;99.90
10314;DHT22;5202;49.138;10.090;2022-11-09T04:20:03;9.00;99.90
10314;DHT22;5202;49.138;10.090;2022-11-09T04:22:32;9.10;99.90
10314;DHT22;5202;49.138;10.090;2022-11-09T04:25:01;9.10;99.90
10314;DHT22;5202;49.138;10.090;2022-11-09T04:27:30;9.10;99.90
10314;DHT22;5202;49.138;10.090;2022-11-09T04:29:59;9.10;99.90
10314;DHT22;5202;49.138;10.090;2022-11-09T04:32:28;9.10;99.90
10314;DHT22;5202;49.138;10.090;2022-11-09T04:34:56;9.10;99.90
10314;DHT22;5202;49.138;10.090;2022-11-09T04:37:24;9.10;99.90
10314;DHT22;5202;49.138;10.090;2022-11-09T04:39:52;9.10;99.90
10314;DHT22;5202;49.138;10.090;2022-11-09T04:42:21;9.10;99.90
10314;DHT22;5202;49.138;10.090;2022-11-09T04:44:49;9.10;99.90
10314;DHT22;5202;49.138;10.090;2022-11-09T04:47:19;9.10;99.90
10314;DHT22;5202;49.138;10.090;2022-11-09T04:49:47;9.10;99.90
10314;DHT22;5202;49.138;10.090;2022-11-09T04:52:15;9.10;99.90
10314;DHT22;5202;49.138;10.090;2022-11-09T04:54:44;9.20;99.90
10314;DHT22;5202;49.138;10.090;2022-11-09T04:57:12;9.10;99.90
10314;DHT22;5202;49.138;10.090;2022-11-09T04:59:40;9.10;99.90
10314;DHT22;5202;49.138;10.090;2022-11-09T05:02:08;9.10;99.90
10314;DHT22;5202;49.138;10.090;2022-11-09T05:04:48;9.10;99.90
10314;DHT22;5202;49.138;10.090;2022-11-09T05:07:21;9.10;99.90
10314;DHT22;5202;49.138;10.090;2022-11-09T05:09:50;9.10;99.90
10314;DHT22;5202;49.138;10.090;2022-11-09T05:12:18;9.10;99.90
10314;DHT22;5202;49.138;10.090;2022-11-09T05:14:46;9.00;99.90
10314;DHT22;5202;49.138;10.090;2022-11-09T05:17:14;9.00;99.90
10314;DHT22;5202;49.138;10.090;2022-11-09T05:19:43;9.00;99.90
10314;DHT22;5202;49.138;10.090;2022-11-09T05:22:12;9.00;99.90
10314;DHT22;5202;49.138;10.090;2022-11-09T05:24:58;9.00;99.90
10314;DHT22;5202;49.138;10.090;2022-11-09T05:27:26;9.00;99.90
10314;DHT22;5202;49.138;10.090;2022-11-09T05:29:54;9.00;99.90
10314;DHT22;5202;49.138;10.090;2022-11-09T05:32:23;9.00;99.90
10314;DHT22;5202;49.138;10.090;2022-11-09T05:34:51;9.10;99.90
10314;DHT22;5202;49.138;10.090;2022-11-09T05:37:20;9.10;99.90
10314;DHT22;5202;49.138;10.090;2022-11-09T05:39:49;9.10;99.90
10314;DHT22;5202;49.138;10.090;2022-11-09T05:42:17;9.00;99.90
10314;DHT22;5202;49.138;10.090;2022-11-09T05:44:45;9.00;99.90
10314;DHT22;5202;49.138;10.090;2022-11-09T05:47:13;9.00;99.90
10314;DHT22;5202;49.138;10.090;2022-11-09T05:49:42;9.00;99.90
10314;DHT22;5202;49.138;10.090;2022-11-09T05:52:10;9.00;99.90
10314;DHT22;5202;49.138;10.090;2022-11-09T05:54:39;9.00;99.90
10314;DHT22;5202;49.138;10.090;2022-11-09T05:57:08;9.00;99.90
10314;DHT22;5202;49.138;10.090;2022-11-09T05:59:36;9.00;99.90
10314;DHT22;5202;49.138;10.090;2022-11-09T06:02:04;9.00;99.90
10314;DHT22;5202;49.138;10.090;2022-11-09T06:04:33;9.00;99.90
10314;DHT22;5202;49.138;10.090;2022-11-09T06:07:01;9.00;99.90
10314;DHT22;5202;49.138;10.090;2022-11-09T06:09:29;9.00;99.90
10314;DHT22;5202;49.138;10.090;2022-11-09T06:11:59;9.00;99.90
10314;DHT22;5202;49.138;10.090;2022-11-09T06:14:27;9.10;99.90
10314;DHT22;5202;49.138;10.090;2022-11-09T06:16:55;9.10;99.90
10314;DHT22;5202;49.138;10.090;2022-11-09T06:19:23;9.10;99.90
10314;DHT22;5202;49.138;10.090;2022-11-09T06:21:52;9.10;99.90
10314;DHT22;5202;49.138;10.090;2022-11-09T06:24:20;9.10;99.90
10314;DHT22;5202;49.138;10.090;2022-11-09T06:26:48;9.10;99.90
10314;DHT22;5202;49.138;10.090;2022-11-09T06:29:18;9.10;99.90
10314;DHT22;5202;49.138;10.090;2022-11-09T06:31:46;9.10;99.90
10314;DHT22;5202;49.138;10.090;2022-11-09T06:34:14;9.10;99.90
10314;DHT22;5202;49.138;10.090;2022-11-09T06:36:43;9.10;99.90
10314;DHT22;5202;49.138;10.090;2022-11-09T06:39:11;9.10;99.90
10314;DHT22;5202;49.138;10.090;2022-11-09T06:41:39;9.10;99.90
10314;DHT22;5202;49.138;10.090;2022-11-09T06:44:13;9.20;99.90
10314;DHT22;5202;49.138;10.090;2022-11-09T06:46:43;9.20;99.90
10314;DHT22;5202;49.138;10.090;2022-11-09T06:49:11;9.20;99.90
10314;DHT22;5202;49.138;10.090;2022-11-09T06:51:39;9.20;99.90
10314;DHT22;5202;49.138;10.090;2022-11-09T06:54:07;9.20;99.90
10314;DHT22;5202;49.138;10.090;2022-11-09T06:56:36;9.20;99.90
10314;DHT22;5202;49.138;10.090;2022-11-09T06:59:04;9.20;99.90
10314;DHT22;5202;49.138;10.090;2022-11-09T07:01:32;9.20;99.90
10314;DHT22;5202;49.138;10.090;2022-11-09T07:04:06;9.20;99.90
10314;DHT22;5202;49.138;10.090;2022-11-09T07:07:04;9.20;99.90
10314;DHT22;5202;49.138;10.090;2022-11-09T07:09:34;9.30;99.90
10314;DHT22;5202;49.138;10.090;2022-11-09T07:12:02;9.30;99.90
10314;DHT22;5202;49.138;10.090;2022-11-09T07:14:30;9.40;99.90
10314;DHT22;5202;49.138;10.090;2022-11-09T07:16:59;9.40;99.90
10314;DHT22;5202;49.138;10.090;2022-11-09T07:19:29;9.40;99.90
10314;DHT22;5202;49.138;10.090;2022-11-09T07:21:57;9.40;99.90
10314;DHT22;5202;49.138;10.090;2022-11-09T07:24:25;9.50;99.90
10314;DHT22;5202;49.138;10.090;2022-11-09T07:26:53;9.50;99.90
10314;DHT22;5202;49.138;10.090;2022-11-09T07:29:22;9.50;99.90
10314;DHT22;5202;49.138;10.090;2022-11-09T07:31:50;9.50;99.90
10314;DHT22;5202;49.138;10.090;2022-11-09T07:34:18;9.60;99.90
10314;DHT22;5202;49.138;10.090;2022-11-09T07:36:48;9.60;99.90
10314;DHT22;5202;49.138;10.090;2022-11-09T07:39:16;9.60;99.90
10314;DHT22;5202;49.138;10.090;2022-11-09T07:41:46;9.60;99.90
10314;DHT22;5202;49.138;10.090;2022-11-09T07:44:14;9.60;99.90
10314;DHT22;5202;49.138;10.090;2022-11-09T07:46:45;9.60;99.90
10314;DHT22;5202;49.138;10.090;2022-11-09T07:49:15;9.60;99.90
10314;DHT22;5202;49.138;10.090;2022-11-09T07:51:43;9.60;99.90
10314;DHT22;5202;49.138;10.090;2022-11-09T07:54:13;9.60;99.90
10314;DHT22;5202;49.138;10.090;2022-11-09T07:56:41;9.60;99.90
10314;DHT22;5202;49.138;10.090;2022-11-09T07:59:09;9.60;99.90
10314;DHT22;5202;49.138;10.090;2022-11-09T08:01:37;9.70;99.90
10314;DHT22;5202;49.138;10.090;2022-11-09T08:04:06;9.70;99.90
10314;DHT22;5202;49.138;10.090;2022-11-09T08:06:34;9.70;99.90
10314;DHT22;5202;49.138;10.090;2022-11-09T08:09:03;9.70;99.90
10314;DHT22;5202;49.138;10.090;2022-11-09T08:11:32;9.70;99.90
10314;DHT22;5202;49.138;10.090;2022-11-09T08:14:01;9.80;99.90
10314;DHT22;5202;49.138;10.090;2022-11-09T08:16:29;9.80;99.90
10314;DHT22;5202;49.138;10.090;2022-11-09T08:19:03;9.70;99.90
10314;DHT22;5202;49.138;10.090;2022-11-09T08:21:34;9.70;99.90
10314;DHT22;5202;49.138;10.090;2022-11-09T08:24:03;9.70;99.90
10314;DHT22;5202;49.138;10.090;2022-11-09T08:26:33;9.70;99.90
10314;DHT22;5202;49.138;10.090;2022-11-09T08:29:02;9.60;99.90
10314;DHT22;5202;49.138;10.090;2022-11-09T08:31:30;9.60;99.90
10314;DHT22;5202;49.138;10.090;2022-11-09T08:33:58;9.60;99.90
10314;DHT22;5202;49.138;10.090;2022-11-09T08:36:27;9.70;99.90
10314;DHT22;5202;49.138;10.090;2022-11-09T08:38:55;9.70;99.90
10314;DHT22;5202;49.138;10.090;2022-11-09T08:41:25;9.80;99.90
10314;DHT22;5202;49.138;10.090;2022-11-09T08:43:54;9.90;99.90
10314;DHT22;5202;49.138;10.090;2022-11-09T08:46:22;9.90;99.90
10314;DHT22;5202;49.138;10.090;2022-11-09T08:48:51;10.00;99.90
10314;DHT22;5202;49.138;10.090;2022-11-09T08:51:19;10.10;99.90
10314;DHT22;5202;49.138;10.090;2022-11-09T08:53:48;10.10;99.90
10314;DHT22;5202;49.138;10.090;2022-11-09T08:56:17;10.20;99.90
10314;DHT22;5202;49.138;10.090;2022-11-09T08:58:45;10.30;99.90
10314;DHT22;5202;49.138;10.090;2022-11-09T09:01:15;10.30;99.90
10314;DHT22;5202;49.138;10.090;2022-11-09T09:03:50;10.40;99.90
10314;DHT22;5202;49.138;10.090;2022-11-09T09:06:18;10.40;99.90
10314;DHT22;5202;49.138;10.090;2022-11-09T09:08:46;10.50;99.90
10314;DHT22;5202;49.138;10.090;2022-11-09T09:11:15;10.50;99.90
10314;DHT22;5202;49.138;10.090;2022-11-09T09:13:43;10.50;99.90
10314;DHT22;5202;49.138;10.090;2022-11-09T09:16:13;10.50;99.90
10314;DHT22;5202;49.138;10.090;2022-11-09T09:18:43;10.50;99.90
10314;DHT22;5202;49.138;10.090;2022-11-09T09:21:14;10.40;99.90
10314;DHT22;5202;49.138;10.090;2022-11-09T09:23:43;10.50;99.90
10314;DHT22;5202;49.138;10.090;2022-11-09T09:26:15;10.50;99.90
10314;DHT22;5202;49.138;10.090;2022-11-09T09:28:43;10.50;99.90
10314;DHT22;5202;49.138;10.090;2022-11-09T09:31:11;10.60;99.90
10314;DHT22;5202;49.138;10.090;2022-11-09T09:33:45;10.70;99.90
10314;DHT22;5202;49.138;10.090;2022-11-09T09:36:16;10.70;99.90
10314;DHT22;5202;49.138;10.090;2022-11-09T09:38:45;10.80;99.90
10314;DHT22;5202;49.138;10.090;2022-11-09T09:41:20;10.90;99.90
10314;DHT22;5202;49.138;10.090;2022-11-09T09:43:53;11.00;99.90
10314;DHT22;5202;49.138;10.090;2022-11-09T09:46:25;11.10;99.90
10314;DHT22;5202;49.138;10.090;2022-11-09T09:49:02;11.10;99.90
10314;DHT22;5202;49.138;10.090;2022-11-09T09:51:36;11.20;99.90
10314;DHT22;5202;49.138;10.090;2022-11-09T09:54:10;11.30;99.90
10314;DHT22;5202;49.138;10.090;2022-11-09T09:56:42;11.40;99.90
10314;DHT22;5202;49.138;10.090;2022-11-09T09:59:18;11.50;99.90
10314;DHT22;5202;49.138;10.090;2022-11-09T10:01:48;11.50;99.90
10314;DHT22;5202;49.138;10.090;2022-11-09T10:04:19;11.50;99.90
10314;DHT22;5202;49.138;10.090;2022-11-09T10:06:57;11.50;99.90
10314;DHT22;5202;49.138;10.090;2022-11-09T10:09:48;11.50;99.90
10314;DHT22;5202;49.138;10.090;2022-11-09T10:12:29;11.50;99.90
10314;DHT22;5202;49.138;10.090;2022-11-09T10:15:18;11.50;99.90
10314;DHT22;5202;49.138;10.090;2022-11-09T10:18:14;11.60;99.90
10314;DHT22;5202;49.138;10.090;2022-11-09T10:21:07;11.60;99.90
10314;DHT22;5202;49.138;10.090;2022-11-09T10:23:45;11.60;99.90
10314;DHT22;5202;49.138;10.090;2022-11-09T10:26:32;11.60;99.90
10314;DHT22;5202;49.138;10.090;2022-11-09T10:29:21;11.70;99.90
10314;DHT22;5202;49.138;10.090;2022-11-09T10:31:52;11.70;99.90
10314;DHT22;5202;49.138;10.090;2022-11-09T10:34:25;11.80;99.90
10314;DHT22;5202;49.138;10.090;2022-11-09T10:37:02;11.90;99.90
10314;DHT22;5202;49.138;10.090;2022-11-09T10:39:39;11.90;99.90
10314;DHT22;5202;49.138;10.090;2022-11-09T10:42:27;11.90;99.90
10314;DHT22;5202;49.138;10.090;2022-11-09T10:45:19;12.00;99.90
10314;DHT22;5202;49.138;10.090;2022-11-09T10:48:13;12.00;99.90
10314;DHT22;5202;49.138;10.090;2022-11-09T10:51:00;12.10;99.90
10314;DHT22;5202;49.138;10.090;2022-11-09T10:53:50;12.10;99.90
10314;DHT22;5202;49.138;10.090;2022-11-09T10:57:09;12.20;99.90
10314;DHT22;5202;49.138;10.090;2022-11-09T10:59:59;12.20;99.90
10314;DHT22;5202;49.138;10.090;2022-11-09T11:02:47;12.30;99.90
10314;DHT22;5202;49.138;10.090;2022-11-09T11:05:36;12.30;99.90
10314;DHT22;5202;49.138;10.090;2022-11-09T11:08:33;12.40;99.90
10314;DHT22;5202;49.138;10.090;2022-11-09T11:11:25;12.60;99.90
10314;DHT22;5202;49.138;10.090;2022-11-09T11:14:28;12.80;99.90
10314;DHT22;5202;49.138;10.090;2022-11-09T11:17:24;13.00;99.90
10314;DHT22;5202;49.138;10.090;2022-11-09T11:20:27;13.10;99.90
10314;DHT22;5202;49.138;10.090;2022-11-09T11:23:17;13.20;99.90
10314;DHT22;5202;49.138;10.090;2022-11-09T11:26:33;13.10;99.90
10314;DHT22;5202;49.138;10.090;2022-11-09T11:29:34;13.10;99.90
10314;DHT22;5202;49.138;10.090;2022-11-09T11:32:25;13.10;99.90
10314;DHT22;5202;49.138;10.090;2022-11-09T11:35:13;13.30;99.90
10314;DHT22;5202;49.138;10.090;2022-11-09T11:38:12;13.60;99.90
10314;DHT22;5202;49.138;10.090;2022-11-09T11:41:19;13.90;99.90
10314;DHT22;5202;49.138;10.090;2022-11-09T11:44:29;13.90;99.90
10314;DHT22;5202;49.138;10.090;2022-11-09T11:47:25;13.90;99.90
10314;DHT22;5202;49.138;10.090;2022-11-09T11:50:30;14.10;99.90
10314;DHT22;5202;49.138;10.090;2022-11-09T11:53:27;13.80;99.90
10314;DHT22;5202;49.138;10.090;2022-11-09T11:56:30;13.70;99.90
10314;DHT22;5202;49.138;10.090;2022-11-09T11:59:43;13.70;99.90
10314;DHT22;5202;49.138;10.090;2022-11-09T12:06:29;14.20;99.90
10314;DHT22;5202;49.138;10.090;2022-11-09T12:09:36;14.40;99.90
10314;DHT22;5202;49.138;10.090;2022-11-09T12:12:39;14.50;99.90
10314;DHT22;5202;49.138;10.090;2022-11-09T12:15:41;14.60;99.90
10314;DHT22;5202;49.138;10.090;2022-11-09T12:18:42;14.70;99.90
10314;DHT22;5202;49.138;10.090;2022-11-09T12:21:38;14.90;99.90
10314;DHT22;5202;49.138;10.090;2022-11-09T12:24:34;14.90;99.90
10314;DHT22;5202;49.138;10.090;2022-11-09T12:27:47;14.90;99.90
10314;DHT22;5202;49.138;10.090;2022-11-09T12:30:48;14.90;99.90
10314;DHT22;5202;49.138;10.090;2022-11-09T12:33:44;15.00;99.90
10314;DHT22;5202;49.138;10.090;2022-11-09T12:36:39;15.10;99.90
10314;DHT22;5202;49.138;10.090;2022-11-09T12:39:34;15.10;99.90
10314;DHT22;5202;49.138;10.090;2022-11-09T12:42:25;15.00;99.90
10314;DHT22;5202;49.138;10.090;2022-11-09T12:45:23;15.00;99.90
10314;DHT22;5202;49.138;10.090;2022-11-09T12:48:21;14.80;99.90
10314;DHT22;5202;49.138;10.090;2022-11-09T12:51:11;14.70;99.90
10314;DHT22;5202;49.138;10.090;2022-11-09T12:53:59;14.60;99.90
10314;DHT22;5202;49.138;10.090;2022-11-09T12:56:50;14.50;99.90
10314;DHT22;5202;49.138;10.090;2022-11-09T12:59:45;14.50;99.90
10314;DHT22;5202;49.138;10.090;2022-11-09T13:02:37;14.50;99.90
10314;DHT22;5202;49.138;10.090;2022-11-09T13:05:29;14.50;99.90
10314;DHT22;5202;49.138;10.090;2022-11-09T13:08:20;14.50;99.90
10314;DHT22;5202;49.138;10.090;2022-11-09T13:11:19;14.40;99.90
10314;DHT22;5202;49.138;10.090;2022-11-09T13:14:32;14.40;99.90
10314;DHT22;5202;49.138;10.090;2022-11-09T13:17:55;14.40;99.90
10314;DHT22;5202;49.138;10.090;2022-11-09T13:20:46;14.30;99.90
10314;DHT22;5202;49.138;10.090;2022-11-09T13:23:42;14.30;99.90
10314;DHT22;5202;49.138;10.090;2022-11-09T13:26:55;14.20;99.90
10314;DHT22;5202;49.138;10.090;2022-11-09T13:29:48;14.20;99.90
10314;DHT22;5202;49.138;10.090;2022-11-09T13:33:20;14.20;99.90
10314;DHT22;5202;49.138;10.090;2022-11-09T13:36:16;14.20;99.90
10314;DHT22;5202;49.138;10.090;2022-11-09T13:39:30;14.20;99.90
10314;DHT22;5202;49.138;10.090;2022-11-09T13:42:25;14.20;99.90
10314;DHT22;5202;49.138;10.090;2022-11-09T13:45:27;14.30;99.90
10314;DHT22;5202;49.138;10.090;2022-11-09T13:48:48;14.30;99.90
10314;DHT22;5202;49.138;10.090;2022-11-09T13:51:42;14.20;99.90
10314;DHT22;5202;49.138;10.090;2022-11-09T13:54:32;14.20;99.90
10314;DHT22;5202;49.138;10.090;2022-11-09T13:57:22;14.10;99.90
10314;DHT22;5202;49.138;10.090;2022-11-09T14:00:15;14.10;99.90
10314;DHT22;5202;49.138;10.090;2022-11-09T14:03:17;14.10;99.90
10314;DHT22;5202;49.138;10.090;2022-11-09T14:06:11;14.10;99.90
10314;DHT22;5202;49.138;10.090;2022-11-09T14:09:00;14.10;99.90
10314;DHT22;5202;49.138;10.090;2022-11-09T14:12:02;14.00;99.90
10314;DHT22;5202;49.138;10.090;2022-11-09T14:15:06;13.90;99.90
10314;DHT22;5202;49.138;10.090;2022-11-09T14:18:07;13.90;99.90
10314;DHT22;5202;49.138;10.090;2022-11-09T14:21:10;13.90;99.90
10314;DHT22;5202;49.138;10.090;2022-11-09T14:24:17;13.90;99.90
10314;DHT22;5202;49.138;10.090;2022-11-09T14:27:13;13.90;99.90
10314;DHT22;5202;49.138;10.090;2022-11-09T14:30:12;13.90;99.90
10314;DHT22;5202;49.138;10.090;2022-11-09T14:33:00;13.90;99.90
10314;DHT22;5202;49.138;10.090;2022-11-09T14:35:46;13.90;99.90
10314;DHT22;5202;49.138;10.090;2022-11-09T14:38:41;13.90;99.90
10314;DHT22;5202;49.138;10.090;2022-11-09T14:41:31;13.80;99.90
10314;DHT22;5202;49.138;10.090;2022-11-09T14:44:24;13.80;99.90
10314;DHT22;5202;49.138;10.090;2022-11-09T14:47:15;13.80;99.90
10314;DHT22;5202;49.138;10.090;2022-11-09T14:50:03;13.80;99.90
10314;DHT22;5202;49.138;10.090;2022-11-09T14:52:52;13.80;99.90
10314;DHT22;5202;49.138;10.090;2022-11-09T14:55:41;13.70;99.90
10314;DHT22;5202;49.138;10.090;2022-11-09T14:58:34;13.70;99.90
10314;DHT22;5202;49.138;10.090;2022-11-09T15:01:24;13.70;99.90
10314;DHT22;5202;49.138;10.090;2022-11-09T15:04:20;13.70;99.90
10314;DHT22;5202;49.138;10.090;2022-11-09T15:07:16;13.70;99.90
10314;DHT22;5202;49.138;10.090;2022-11-09T15:10:07;13.60;99.90
10314;DHT22;5202;49.138;10.090;2022-11-09T15:13:03;13.60;99.90
10314;DHT22;5202;49.138;10.090;2022-11-09T15:15:53;13.60;99.90
10314;DHT22;5202;49.138;10.090;2022-11-09T15:18:44;13.50;99.90
10314;DHT22;5202;49.138;10.090;2022-11-09T15:21:36;13.50;99.90
10314;DHT22;5202;49.138;10.090;2022-11-09T15:24:24;13.50;99.90
10314;DHT22;5202;49.138;10.090;2022-11-09T15:27:29;13.50;99.90
10314;DHT22;5202;49.138;10.090;2022-11-09T15:30:28;13.50;99.90
10314;DHT22;5202;49.138;10.090;2022-11-09T15:33:24;13.50;99.90
10314;DHT22;5202;49.138;10.090;2022-11-09T15:36:27;13.40;99.90
10314;DHT22;5202;49.138;10.090;2022-11-09T15:39:18;13.40;99.90
10314;DHT22;5202;49.138;10.090;2022-11-09T15:42:11;13.30;99.90
10314;DHT22;5202;49.138;10.090;2022-11-09T15:44:59;13.30;99.90
10314;DHT22;5202;49.138;10.090;2022-11-09T15:47:50;13.30;99.90
10314;DHT22;5202;49.138;10.090;2022-11-09T15:50:39;13.20;99.90
10314;DHT22;5202;49.138;10.090;2022-11-09T15:53:26;13.20;99.90
10314;DHT22;5202;49.138;10.090;2022-11-09T15:56:16;13.10;99.90
10314;DHT22;5202;49.138;10.090;2022-11-09T15:59:04;13.10;99.90
10314;DHT22;5202;49.138;10.090;2022-11-09T16:01:51;13.10;99.90
10314;DHT22;5202;49.138;10.090;2022-11-09T16:04:39;13.10;99.90
10314;DHT22;5202;49.138;10.090;2022-11-09T16:07:27;13.10;99.90
10314;DHT22;5202;49.138;10.090;2022-11-09T16:10:15;13.10;99.90
10314;DHT22;5202;49.138;10.090;2022-11-09T16:13:02;13.10;99.90
10314;DHT22;5202;49.138;10.090;2022-11-09T16:15:49;13.10;99.90
10314;DHT22;5202;49.138;10.090;2022-11-09T16:18:36;13.10;99.90
10314;DHT22;5202;49.138;10.090;2022-11-09T16:21:23;13.00;99.90
10314;DHT22;5202;49.138;10.090;2022-11-09T16:24:11;13.00;99.90
10314;DHT22;5202;49.138;10.090;2022-11-09T16:26:59;13.00;99.90
10314;DHT22;5202;49.138;10.090;2022-11-09T16:29:53;13.00;99.90
10314;DHT22;5202;49.138;10.090;2022-11-09T16:32:41;12.90;99.90
10314;DHT22;5202;49.138;10.090;2022-11-09T16:35:28;12.90;99.90
10314;DHT22;5202;49.138;10.090;2022-11-09T16:38:15;12.90;99.90
10314;DHT22;5202;49.138;10.090;2022-11-09T16:41:04;12.80;99.90
10314;DHT22;5202;49.138;10.090;2022-11-09T16:43:51;12.80;99.90
10314;DHT22;5202;49.138;10.090;2022-11-09T16:46:40;12.70;99.90
10314;DHT22;5202;49.138;10.090;2022-11-09T16:49:28;12.70;99.90
10314;DHT22;5202;49.138;10.090;2022-11-09T16:52:15;12.60;99.90
10314;DHT22;5202;49.138;10.090;2022-11-09T16:55:02;12.60;99.90
10314;DHT22;5202;49.138;10.090;2022-11-09T16:57:50;12.60;99.90